Time;durP1;ratioP1;P1;durP2;ratioP2;P2;SDS_P1;SDS_P2;PMS_P1;PMS_P2;Temp;Humidity;BMP_temperature;BMP_pressure;BME280_temperature;BME280_humidity;BME280_pressure;Samples;Min_cycle;Max_cycle;Signal;HPM_P1;HPM_P2
2021/03/09 00:01:46;;;;;;;22.57;11.93;;;;;;;;;;5028110;28;20209;-70
2021/03/09 00:04:12;;;;;;;18.60;11.00;;;;;;;;;;5025395;28;20323;-70
2021/03/09 00:06:37;;;;;;;19.37;11.17;;;;;;;;;;5027836;28;20217;-72
2021/03/09 00:09:02;;;;;;;23.50;11.20;;;;;;;;;;5025426;28;20231;-72
2021/03/09 00:11:27;;;;;;;19.77;11.37;;;;;;;;;;5031969;28;20220;-71
2021/03/09 00:13:53;;;;;;;20.40;11.73;;;;;;;;;;5025446;28;20186;-71
2021/03/09 00:16:18;;;;;;;20.67;11.17;;;;;;;;;;5030652;28;20205;-71
2021/03/09 00:18:43;;;;;;;18.53;11.33;;;;;;;;;;5031667;28;20190;-70
2021/03/09 00:21:08;;;;;;;19.50;10.60;;;;;;;;;;5029986;28;20658;-69
2021/03/09 00:23:33;;;;;;;22.83;11.33;;;;;;;;;;5027042;28;20209;-70
2021/03/09 00:25:59;;;;;;;24.30;12.67;;;;;;;;;;5024585;28;20269;-69
2021/03/09 00:28:24;;;;;;;21.03;12.43;;;;;;;;;;5025305;28;21300;-70
2021/03/09 00:30:49;;;;;;;22.17;12.33;;;;;;;;;;5030563;28;20286;-70
2021/03/09 00:33:14;;;;;;;20.87;12.83;;;;;;;;;;5029476;28;20243;-69
2021/03/09 00:35:39;;;;;;;27.97;14.37;;;;;;;;;;5026230;28;20205;-70
2021/03/09 00:38:04;;;;;;;26.63;14.93;;;;;;;;;;5024850;28;20221;-69
2021/03/09 00:40:30;;;;;;;23.60;13.80;;;;;;;;;;5024077;28;21122;-70
2021/03/09 00:42:55;;;;;;;26.53;13.83;;;;;;;;;;5031217;28;20191;-70
2021/03/09 00:45:20;;;;;;;27.23;13.87;;;;;;;;;;5024265;28;20261;-70
2021/03/09 00:47:45;;;;;;;26.07;15.47;;;;;;;;;;5025131;28;20265;-71
2021/03/09 00:50:11;;;;;;;24.03;14.67;;;;;;;;;;5027348;28;20284;-71
2021/03/09 00:52:36;;;;;;;28.93;16.37;;;;;;;;;;5048620;28;20650;-69
2021/03/09 00:55:01;;;;;;;29.63;16.30;;;;;;;;;;5051599;28;20662;-69
2021/03/09 00:57:26;;;;;;;34.00;16.83;;;;;;;;;;5052677;28;20218;-69
2021/03/09 00:59:51;;;;;;;33.43;17.23;;;;;;;;;;5059342;28;20209;-70
2021/03/09 01:02:17;;;;;;;35.20;16.87;;;;;;;;;;5050698;28;20186;-70
2021/03/09 01:04:42;;;;;;;27.23;16.27;;;;;;;;;;5052533;28;20178;-71
2021/03/09 01:07:07;;;;;;;35.25;18.90;;;;;;;;;;5040907;28;20213;-69
2021/03/09 01:09:32;;;;;;;31.97;19.37;;;;;;;;;;5040031;28;20236;-70
2021/03/09 01:11:57;;;;;;;29.50;16.83;;;;;;;;;;5041957;28;20197;-69
2021/03/09 01:14:23;;;;;;;35.93;17.10;;;;;;;;;;5038854;28;20216;-70
2021/03/09 01:16:48;;;;;;;35.20;18.20;;;;;;;;;;5035790;28;20208;-69
2021/03/09 01:19:13;;;;;;;33.87;18.50;;;;;;;;;;5044671;28;20614;-69
2021/03/09 01:21:38;;;;;;;37.50;18.93;;;;;;;;;;5040225;28;20233;-71
2021/03/09 01:24:04;;;;;;;34.93;18.63;;;;;;;;;;5039539;28;20169;-69
2021/03/09 01:26:29;;;;;;;38.40;20.27;;;;;;;;;;5040516;28;21553;-69
2021/03/09 01:28:54;;;;;;;38.50;20.80;;;;;;;;;;5052687;28;20198;-69
2021/03/09 01:31:19;;;;;;;36.80;19.63;;;;;;;;;;5047098;28;20348;-70
2021/03/09 01:33:45;;;;;;;37.00;19.83;;;;;;;;;;5046580;28;20243;-69
2021/03/09 01:36:10;;;;;;;38.00;19.67;;;;;;;;;;5044063;28;20292;-69
2021/03/09 01:38:35;;;;;;;40.33;20.67;;;;;;;;;;5047355;28;20231;-69
2021/03/09 01:41:01;;;;;;;38.80;20.07;;;;;;;;;;5043093;28;20184;-70
2021/03/09 01:43:26;;;;;;;35.90;18.43;;;;;;;;;;5047048;28;20182;-70
2021/03/09 01:45:51;;;;;;;40.33;19.97;;;;;;;;;;5048967;28;20655;-70
2021/03/09 01:48:19;;;;;;;36.80;21.13;;;;;;;;;;5049280;28;20590;-70
2021/03/09 01:50:44;;;;;;;42.13;22.13;;;;;;;;;;5043535;28;20752;-69
2021/03/09 01:53:10;;;;;;;40.10;21.57;;;;;;;;;;5041702;28;20193;-71
2021/03/09 01:55:35;;;;;;;38.80;20.10;;;;;;;;;;5021559;28;20259;-70
2021/03/09 01:58:04;;;;;;;39.63;20.97;;;;;;;;;;5027055;28;21565;-69
2021/03/09 02:00:30;;;;;;;36.37;20.37;;;;;;;;;;5033349;28;20709;-70
2021/03/09 02:02:55;;;;;;;41.97;23.20;;;;;;;;;;5044551;28;20177;-70
2021/03/09 02:05:20;;;;;;;35.57;20.57;;;;;;;;;;5031717;28;20188;-70
2021/03/09 02:07:45;;;;;;;39.63;21.70;;;;;;;;;;5049280;28;20186;-70
2021/03/09 02:10:11;;;;;;;43.03;20.93;;;;;;;;;;5030437;28;20205;-69
2021/03/09 02:12:57;;;;;;;36.47;20.47;;;;;;;;;;5040537;28;20276;-69
2021/03/09 02:15:25;;;;;;;39.47;21.17;;;;;;;;;;5044896;28;20756;-71
2021/03/09 02:17:50;;;;;;;43.17;22.23;;;;;;;;;;5046366;28;20181;-71
2021/03/09 02:20:18;;;;;;;39.88;20.98;;;;;;;;;;5049853;28;20220;-71
2021/03/09 02:23:02;;;;;;;42.20;22.37;;;;;;;;;;5047250;28;20199;-69
2021/03/09 02:25:47;;;;;;;40.70;22.20;;;;;;;;;;5045489;28;20180;-72
2021/03/09 02:28:31;;;;;;;40.37;19.90;;;;;;;;;;5045519;28;20208;-68
2021/03/09 02:30:57;;;;;;;37.90;19.80;;;;;;;;;;5045727;28;20227;-71
2021/03/09 02:33:29;;;;;;;43.70;22.33;;;;;;;;;;5046586;28;20181;-72
2021/03/09 02:36:00;;;;;;;45.50;22.93;;;;;;;;;;5048091;28;20247;-71
2021/03/09 02:38:26;;;;;;;36.77;20.87;;;;;;;;;;5040877;28;20185;-70
2021/03/09 02:40:53;;;;;;;46.53;22.47;;;;;;;;;;5044170;28;20197;-71
2021/03/09 02:43:20;;;;;;;52.20;23.47;;;;;;;;;;5046688;28;20178;-71
2021/03/09 02:45:48;;;;;;;41.17;22.40;;;;;;;;;;5050104;28;20193;-71
2021/03/09 02:48:14;;;;;;;41.53;21.37;;;;;;;;;;5048384;28;20177;-70
2021/03/09 02:50:40;;;;;;;45.27;23.93;;;;;;;;;;5047669;28;20205;-71
2021/03/09 02:53:07;;;;;;;42.40;22.60;;;;;;;;;;5044773;28;20563;-71
2021/03/09 02:55:33;;;;;;;41.40;23.00;;;;;;;;;;5048282;28;20198;-71
2021/03/09 02:57:59;;;;;;;39.90;21.80;;;;;;;;;;5047319;28;20224;-70
2021/03/09 03:00:24;;;;;;;38.67;22.40;;;;;;;;;;5043986;28;20198;-72
2021/03/09 03:02:50;;;;;;;42.90;23.33;;;;;;;;;;5047130;28;20178;-70
2021/03/09 03:05:17;;;;;;;41.87;22.97;;;;;;;;;;5046227;28;20170;-70
2021/03/09 03:07:42;;;;;;;43.60;23.67;;;;;;;;;;5049703;28;20177;-70
2021/03/09 03:10:11;;;;;;;43.17;22.57;;;;;;;;;;5048540;28;20560;-71
2021/03/09 03:12:36;;;;;;;44.50;23.23;;;;;;;;;;5047065;28;20189;-70
2021/03/09 03:15:03;;;;;;;41.00;22.67;;;;;;;;;;5044102;28;20209;-71
2021/03/09 03:17:29;;;;;;;40.37;22.70;;;;;;;;;;5045668;28;20209;-71
2021/03/09 03:19:55;;;;;;;40.97;23.17;;;;;;;;;;5053735;28;20212;-71
2021/03/09 03:22:21;;;;;;;46.20;23.87;;;;;;;;;;5052258;28;20170;-71
2021/03/09 03:24:48;;;;;;;38.83;23.97;;;;;;;;;;5051082;28;20527;-71
2021/03/09 03:27:16;;;;;;;41.83;22.93;;;;;;;;;;5047124;28;20185;-71
2021/03/09 03:29:42;;;;;;;46.60;25.00;;;;;;;;;;5049464;28;20202;-71
2021/03/09 03:32:07;;;;;;;41.17;22.97;;;;;;;;;;5049750;28;20193;-71
2021/03/09 03:34:32;;;;;;;42.77;24.17;;;;;;;;;;5051379;28;20643;-73
2021/03/09 03:36:58;;;;;;;45.87;24.93;;;;;;;;;;5048673;28;20198;-70
2021/03/09 03:39:23;;;;;;;45.27;23.83;;;;;;;;;;5051446;28;20202;-71
2021/03/09 03:41:48;;;;;;;43.63;25.53;;;;;;;;;;5050947;28;20177;-70
2021/03/09 03:44:14;;;;;;;44.40;24.80;;;;;;;;;;5053386;28;20224;-70
2021/03/09 03:46:39;;;;;;;49.80;24.57;;;;;;;;;;5049139;28;20606;-70
2021/03/09 03:49:04;;;;;;;50.80;25.30;;;;;;;;;;5046326;28;20546;-71
2021/03/09 03:51:33;;;;;;;45.60;24.53;;;;;;;;;;5055046;28;20201;-71
2021/03/09 03:54:15;;;;;;;47.53;26.07;;;;;;;;;;5049305;28;20607;-70
2021/03/09 03:56:55;;;;;;;50.73;26.87;;;;;;;;;;5043310;28;20577;-71
2021/03/09 03:59:26;;;;;;;53.17;28.47;;;;;;;;;;5050863;28;20197;-71
2021/03/09 04:01:52;;;;;;;54.13;27.50;;;;;;;;;;5049046;28;20182;-71
2021/03/09 04:04:18;;;;;;;54.23;27.07;;;;;;;;;;5046828;28;20181;-72
2021/03/09 04:06:46;;;;;;;49.80;27.57;;;;;;;;;;5052365;28;20207;-71
2021/03/09 04:09:11;;;;;;;52.13;27.97;;;;;;;;;;5051220;28;20585;-70
2021/03/09 04:11:37;;;;;;;56.17;29.97;;;;;;;;;;5051338;28;20216;-70
2021/03/09 04:14:03;;;;;;;53.50;29.53;;;;;;;;;;5047380;28;20604;-71
2021/03/09 04:16:30;;;;;;;53.30;29.00;;;;;;;;;;5048267;28;20201;-71
2021/03/09 04:18:55;;;;;;;48.87;28.57;;;;;;;;;;5045892;28;20233;-70
2021/03/09 04:21:21;;;;;;;53.73;29.73;;;;;;;;;;5044318;28;20204;-72
2021/03/09 04:23:46;;;;;;;54.37;30.40;;;;;;;;;;5050816;28;20662;-71
2021/03/09 04:26:12;;;;;;;55.37;30.17;;;;;;;;;;5050080;28;20212;-71
2021/03/09 04:28:39;;;;;;;59.03;32.93;;;;;;;;;;5050109;28;20243;-71
2021/03/09 04:31:04;;;;;;;54.40;27.80;;;;;;;;;;5048948;28;20186;-70
2021/03/09 04:33:29;;;;;;;54.67;29.33;;;;;;;;;;5052564;28;20270;-71
2021/03/09 04:35:55;;;;;;;59.57;30.33;;;;;;;;;;5050925;28;20209;-71
2021/03/09 04:38:20;;;;;;;56.93;30.90;;;;;;;;;;5050949;28;20181;-71
2021/03/09 04:40:46;;;;;;;58.57;30.80;;;;;;;;;;5049266;28;20691;-71
2021/03/09 04:43:11;;;;;;;62.23;31.90;;;;;;;;;;5048586;28;20181;-69
2021/03/09 04:45:37;;;;;;;56.47;31.20;;;;;;;;;;5046655;28;20688;-70
2021/03/09 04:48:02;;;;;;;63.00;32.87;;;;;;;;;;5050808;28;20189;-70
2021/03/09 04:50:28;;;;;;;62.00;34.27;;;;;;;;;;5051631;28;20216;-69
2021/03/09 04:52:53;;;;;;;53.03;31.17;;;;;;;;;;5049152;28;20232;-69
2021/03/09 04:55:20;;;;;;;59.20;33.23;;;;;;;;;;5044306;28;20189;-70
2021/03/09 04:57:45;;;;;;;60.83;32.37;;;;;;;;;;5046575;28;20636;-70
2021/03/09 05:00:11;;;;;;;54.90;30.87;;;;;;;;;;5049670;28;20292;-70
2021/03/09 05:02:36;;;;;;;59.07;31.43;;;;;;;;;;5048798;28;20269;-70
2021/03/09 05:05:02;;;;;;;62.73;34.07;;;;;;;;;;5048864;28;20211;-70
2021/03/09 05:07:27;;;;;;;61.93;34.23;;;;;;;;;;5047843;28;20184;-70
2021/03/09 05:09:52;;;;;;;63.93;33.27;;;;;;;;;;5048896;28;20268;-70
2021/03/09 05:12:18;;;;;;;65.00;34.80;;;;;;;;;;5048073;28;20273;-70
2021/03/09 05:14:43;;;;;;;62.97;35.07;;;;;;;;;;5043428;28;20234;-70
2021/03/09 05:17:08;;;;;;;65.57;36.47;;;;;;;;;;5049422;28;20655;-69
2021/03/09 05:19:33;;;;;;;61.67;33.90;;;;;;;;;;5052513;28;20271;-70
2021/03/09 05:21:58;;;;;;;67.07;35.70;;;;;;;;;;5045619;28;20178;-70
2021/03/09 05:24:24;;;;;;;62.37;36.83;;;;;;;;;;5052162;28;20178;-70
2021/03/09 05:26:49;;;;;;;68.50;37.83;;;;;;;;;;5046872;28;20178;-70
2021/03/09 05:29:14;;;;;;;65.40;35.90;;;;;;;;;;5045234;28;20228;-70
2021/03/09 05:31:39;;;;;;;66.40;34.33;;;;;;;;;;5048725;28;20408;-70
2021/03/09 05:34:04;;;;;;;69.53;36.93;;;;;;;;;;5043898;28;20181;-71
2021/03/09 05:36:32;;;;;;;68.87;37.40;;;;;;;;;;5047476;28;20220;-69
2021/03/09 05:38:57;;;;;;;70.60;38.00;;;;;;;;;;5037986;28;20715;-71
2021/03/09 05:41:22;;;;;;;73.50;39.27;;;;;;;;;;5049173;28;20185;-70
2021/03/09 05:43:48;;;;;;;66.47;36.30;;;;;;;;;;5050934;28;20174;-70
2021/03/09 05:46:13;;;;;;;71.63;37.67;;;;;;;;;;5048406;28;20559;-70
2021/03/09 05:48:39;;;;;;;72.37;38.40;;;;;;;;;;5049672;28;20173;-70
2021/03/09 05:51:04;;;;;;;76.10;38.83;;;;;;;;;;5046006;28;20178;-70
2021/03/09 05:53:29;;;;;;;71.83;36.10;;;;;;;;;;5048147;28;20213;-70
2021/03/09 05:55:54;;;;;;;70.30;35.83;;;;;;;;;;5049488;28;20200;-70
2021/03/09 05:58:20;;;;;;;68.00;36.63;;;;;;;;;;5053082;28;20178;-70
2021/03/09 06:00:45;;;;;;;64.87;35.43;;;;;;;;;;5047125;28;20190;-70
2021/03/09 06:03:10;;;;;;;64.00;34.23;;;;;;;;;;5035973;28;20564;-70
2021/03/09 06:05:36;;;;;;;54.40;30.33;;;;;;;;;;5049019;28;20185;-70
2021/03/09 06:08:01;;;;;;;56.47;29.63;;;;;;;;;;5047438;28;20243;-70
2021/03/09 06:10:26;;;;;;;44.83;27.00;;;;;;;;;;5049368;28;20707;-70
2021/03/09 06:12:52;;;;;;;53.87;25.70;;;;;;;;;;5045522;28;20197;-71
2021/03/09 06:15:17;;;;;;;44.03;22.50;;;;;;;;;;5047761;28;20713;-69
2021/03/09 06:17:43;;;;;;;41.67;19.73;;;;;;;;;;5050681;28;20612;-70
2021/03/09 06:20:20;;;;;;;35.63;17.97;;;;;;;;;;5047345;28;20198;-70
2021/03/09 06:22:50;;;;;;;29.83;14.27;;;;;;;;;;5044597;28;20177;-70
2021/03/09 06:25:17;;;;;;;26.97;11.20;;;;;;;;;;5044670;28;20184;-70
2021/03/09 06:27:43;;;;;;;21.87;9.70;;;;;;;;;;5047106;28;20265;-71
2021/03/09 06:30:10;;;;;;;21.00;9.03;;;;;;;;;;5045756;28;20293;-70
2021/03/09 06:32:45;;;;;;;15.63;8.70;;;;;;;;;;5047644;28;20194;-71
2021/03/09 06:35:28;;;;;;;16.70;8.00;;;;;;;;;;5046365;28;20196;-70
2021/03/09 06:38:13;;;;;;;11.23;7.37;;;;;;;;;;5039045;28;20173;-69
2021/03/09 06:40:38;;;;;;;14.23;5.60;;;;;;;;;;5043636;28;20217;-68
2021/03/09 06:43:12;;;;;;;11.33;3.77;;;;;;;;;;5043477;28;20628;-68
2021/03/09 06:45:37;;;;;;;9.17;3.77;;;;;;;;;;5038511;28;20678;-68
2021/03/09 06:48:17;;;;;;;7.50;3.97;;;;;;;;;;5043314;28;20255;-69
2021/03/09 06:50:42;;;;;;;4.53;2.30;;;;;;;;;;5047997;28;20271;-69
2021/03/09 06:53:07;;;;;;;3.67;2.47;;;;;;;;;;5051455;28;20659;-69
2021/03/09 06:55:33;;;;;;;5.87;2.07;;;;;;;;;;5048679;28;20177;-70
2021/03/09 06:58:05;;;;;;;6.07;2.70;;;;;;;;;;5046308;28;20182;-69
2021/03/09 07:00:30;;;;;;;5.17;2.97;;;;;;;;;;5044923;28;20710;-70
2021/03/09 07:02:55;;;;;;;6.40;2.50;;;;;;;;;;5042999;28;20182;-69
2021/03/09 07:05:21;;;;;;;9.83;2.90;;;;;;;;;;5043203;28;20188;-69
2021/03/09 07:07:46;;;;;;;7.80;3.47;;;;;;;;;;5050123;28;20197;-69
2021/03/09 07:10:12;;;;;;;7.37;2.97;;;;;;;;;;5053472;28;20213;-68
2021/03/09 07:12:38;;;;;;;6.53;3.00;;;;;;;;;;5047621;28;20174;-70
2021/03/09 07:15:05;;;;;;;4.97;1.97;;;;;;;;;;5047456;28;20186;-69
2021/03/09 07:17:32;;;;;;;4.07;2.20;;;;;;;;;;5041913;28;20738;-69
2021/03/09 07:19:58;;;;;;;4.03;1.80;;;;;;;;;;5039760;28;20198;-68
2021/03/09 07:22:23;;;;;;;6.17;2.03;;;;;;;;;;5047094;28;20178;-69
2021/03/09 07:25:11;;;;;;;4.20;1.90;;;;;;;;;;5054422;28;20221;-69
2021/03/09 07:27:54;;;;;;;3.30;1.70;;;;;;;;;;5040976;28;20260;-70
2021/03/09 07:30:21;;;;;;;9.20;2.10;;;;;;;;;;5038546;28;20202;-70
2021/03/09 07:32:47;;;;;;;3.70;1.80;;;;;;;;;;5036293;28;20193;-69
2021/03/09 07:35:12;;;;;;;8.33;1.83;;;;;;;;;;5040202;28;20205;-69
2021/03/09 07:37:39;;;;;;;3.27;2.00;;;;;;;;;;5040449;28;20709;-69
2021/03/09 07:40:08;;;;;;;3.57;1.30;;;;;;;;;;5042824;28;20744;-69
2021/03/09 07:42:34;;;;;;;2.90;1.67;;;;;;;;;;5039916;28;20178;-69
2021/03/09 07:44:59;;;;;;;3.50;1.60;;;;;;;;;;5037880;28;20934;-69
2021/03/09 07:47:24;;;;;;;2.63;1.67;;;;;;;;;;5041122;28;20185;-70
2021/03/09 07:49:50;;;;;;;3.67;1.80;;;;;;;;;;5039459;28;20637;-70
2021/03/09 07:52:16;;;;;;;3.50;1.80;;;;;;;;;;5039058;28;20210;-69
2021/03/09 07:55:00;;;;;;;4.37;2.47;;;;;;;;;;5038287;28;20173;-69
2021/03/09 07:57:26;;;;;;;2.90;1.53;;;;;;;;;;5043220;28;20328;-70
2021/03/09 08:00:01;;;;;;;4.03;1.90;;;;;;;;;;5039983;28;20300;-69
2021/03/09 08:02:39;;;;;;;4.83;1.90;;;;;;;;;;5035821;28;20185;-69
2021/03/09 08:05:06;;;;;;;5.43;1.87;;;;;;;;;;5039708;28;20169;-69
2021/03/09 08:07:51;;;;;;;2.70;1.40;;;;;;;;;;5051338;28;20282;-69
2021/03/09 08:10:34;;;;;;;4.60;1.47;;;;;;;;;;5046813;28;20206;-69
2021/03/09 08:13:12;;;;;;;3.20;1.70;;;;;;;;;;5053020;28;20181;-69
2021/03/09 08:15:38;;;;;;;4.23;2.27;;;;;;;;;;5051654;28;20249;-70
2021/03/09 08:18:21;;;;;;;3.80;1.20;;;;;;;;;;5050577;28;20174;-69
2021/03/09 08:20:51;;;;;;;1.87;1.53;;;;;;;;;;5041443;28;20284;-69
2021/03/09 08:23:33;;;;;;;5.57;1.50;;;;;;;;;;5041507;28;20188;-70
2021/03/09 08:25:59;;;;;;;2.43;1.67;;;;;;;;;;5053232;28;20189;-69
2021/03/09 08:28:31;;;;;;;3.13;1.50;;;;;;;;;;5048877;28;20231;-68
2021/03/09 08:31:16;;;;;;;5.17;2.30;;;;;;;;;;5046802;28;20506;-70
2021/03/09 08:33:42;;;;;;;5.30;1.57;;;;;;;;;;5050458;28;20213;-70
2021/03/09 08:36:19;;;;;;;1.70;1.40;;;;;;;;;;5049284;28;20236;-68
2021/03/09 08:41:28;;;;;;;4.43;1.50;;;;;;;;;;5023506;28;21983;-69
2021/03/09 08:44:12;;;;;;;3.77;1.10;;;;;;;;;;5033420;28;20284;-70
2021/03/09 08:46:56;;;;;;;3.90;1.40;;;;;;;;;;5048367;28;20189;-70
2021/03/09 08:49:33;;;;;;;3.50;1.27;;;;;;;;;;5036509;28;20594;-70
2021/03/09 08:51:59;;;;;;;3.93;1.20;;;;;;;;;;5033645;28;20617;-70
2021/03/09 08:54:24;;;;;;;4.07;1.50;;;;;;;;;;5023053;28;20265;-69
2021/03/09 08:56:49;;;;;;;3.33;1.20;;;;;;;;;;5027822;28;20264;-69
2021/03/09 08:59:19;;;;;;;2.60;1.00;;;;;;;;;;5025353;28;20267;-69
2021/03/09 09:01:44;;;;;;;1.80;1.00;;;;;;;;;;5031838;28;20181;-69
2021/03/09 09:04:13;;;;;;;2.37;1.00;;;;;;;;;;5024296;28;20179;-70
2021/03/09 09:06:38;;;;;;;2.17;1.30;;;;;;;;;;5027040;28;20644;-70
2021/03/09 09:09:03;;;;;;;1.38;0.95;;;;;;;;;;5025549;28;20201;-72
2021/03/09 09:11:29;;;;;;;2.40;1.10;;;;;;;;;;5032076;28;20372;-70
2021/03/09 09:13:54;;;;;;;1.27;0.90;;;;;;;;;;5026766;28;20186;-70
2021/03/09 09:16:21;;;;;;;1.63;0.90;;;;;;;;;;5027633;28;20201;-70
2021/03/09 09:18:46;;;;;;;3.33;1.20;;;;;;;;;;5024596;28;20533;-69
2021/03/09 09:21:11;;;;;;;2.80;1.30;;;;;;;;;;5028274;28;20265;-70
2021/03/09 09:23:36;;;;;;;2.27;0.80;;;;;;;;;;5025405;28;20174;-70
2021/03/09 09:26:02;;;;;;;4.07;1.03;;;;;;;;;;5035385;28;20185;-70
2021/03/09 09:28:34;;;;;;;1.53;0.90;;;;;;;;;;5024817;28;20608;-71
2021/03/09 09:31:01;;;;;;;8.70;2.80;;;;;;;;;;5036183;28;20708;-71
2021/03/09 09:33:29;;;;;;;0.73;0.70;;;;;;;;;;5024792;28;20182;-69
2021/03/09 09:35:54;;;;;;;3.70;0.83;;;;;;;;;;5050514;28;20200;-70
2021/03/09 09:38:19;;;;;;;1.77;0.60;;;;;;;;;;5024138;28;20170;-69
2021/03/09 09:40:45;;;;;;;2.20;0.97;;;;;;;;;;5036934;28;20193;-69
2021/03/09 09:43:12;;;;;;;1.60;0.80;;;;;;;;;;5026168;28;20328;-71
2021/03/09 09:45:43;;;;;;;1.43;0.90;;;;;;;;;;5023394;28;20659;-70
2021/03/09 09:48:10;;;;;;;2.67;1.03;;;;;;;;;;5024355;28;20185;-70
2021/03/09 09:50:36;;;;;;;1.13;0.90;;;;;;;;;;5029123;28;20205;-69
2021/03/09 09:53:02;;;;;;;7.07;1.70;;;;;;;;;;5042662;28;20185;-69
2021/03/09 09:55:30;;;;;;;1.33;1.20;;;;;;;;;;5038341;28;20237;-70
2021/03/09 09:57:56;;;;;;;1.70;1.20;;;;;;;;;;5047667;28;20189;-67
2021/03/09 10:00:23;;;;;;;1.57;0.70;;;;;;;;;;5033716;28;20213;-69
2021/03/09 10:03:04;;;;;;;2.93;1.40;;;;;;;;;;5032720;28;20182;-72
2021/03/09 10:05:29;;;;;;;2.83;0.70;;;;;;;;;;5027792;28;20182;-70
2021/03/09 10:07:55;;;;;;;1.97;0.60;;;;;;;;;;5031945;28;20615;-70
2021/03/09 10:10:20;;;;;;;1.17;0.63;;;;;;;;;;5023911;28;20396;-71
2021/03/09 10:12:45;;;;;;;1.43;0.60;;;;;;;;;;5037583;28;20652;-69
2021/03/09 10:15:11;;;;;;;1.67;0.70;;;;;;;;;;5049469;28;20161;-70
2021/03/09 10:17:36;;;;;;;1.60;0.63;;;;;;;;;;5036189;28;20206;-70
2021/03/09 10:20:17;;;;;;;0.93;0.77;;;;;;;;;;5049486;28;20205;-68
2021/03/09 10:22:42;;;;;;;2.77;0.73;;;;;;;;;;5029368;28;20190;-68
2021/03/09 10:25:08;;;;;;;2.10;0.80;;;;;;;;;;5028585;28;20182;-67
2021/03/09 10:27:33;;;;;;;1.63;0.80;;;;;;;;;;5025615;28;20325;-68
2021/03/09 10:29:59;;;;;;;3.30;0.90;;;;;;;;;;5035200;28;20582;-68
2021/03/09 10:32:24;;;;;;;0.80;0.80;;;;;;;;;;5037191;28;20284;-67
2021/03/09 10:34:54;;;;;;;2.50;0.70;;;;;;;;;;5034040;28;20205;-67
2021/03/09 10:37:33;;;;;;;1.30;0.73;;;;;;;;;;5028027;28;20202;-67
2021/03/09 10:40:06;;;;;;;0.90;0.80;;;;;;;;;;5028247;28;20186;-67
2021/03/09 10:42:31;;;;;;;1.73;0.80;;;;;;;;;;5033790;28;20239;-68
2021/03/09 10:44:57;;;;;;;2.73;0.90;;;;;;;;;;5026717;28;20189;-66
2021/03/09 10:47:23;;;;;;;0.83;0.70;;;;;;;;;;5033495;28;20278;-66
2021/03/09 10:49:48;;;;;;;3.30;0.63;;;;;;;;;;5028200;28;20700;-68
2021/03/09 10:52:13;;;;;;;2.43;0.63;;;;;;;;;;5034269;28;20193;-67
2021/03/09 10:54:38;;;;;;;1.37;0.70;;;;;;;;;;5031448;28;20264;-67
2021/03/09 10:57:10;;;;;;;1.73;0.77;;;;;;;;;;5041073;28;21037;-69
2021/03/09 10:59:36;;;;;;;2.23;0.60;;;;;;;;;;5033012;28;20500;-68
2021/03/09 11:02:02;;;;;;;1.50;0.50;;;;;;;;;;5031642;28;20240;-66
2021/03/09 11:04:27;;;;;;;1.77;0.90;;;;;;;;;;5049590;28;20651;-69
2021/03/09 11:06:52;;;;;;;0.93;0.60;;;;;;;;;;5045010;28;20182;-69
2021/03/09 11:09:18;;;;;;;2.70;0.50;;;;;;;;;;5028283;28;20217;-67
2021/03/09 11:11:43;;;;;;;1.07;0.50;;;;;;;;;;5038929;28;20174;-68
2021/03/09 11:14:09;;;;;;;0.60;0.40;;;;;;;;;;5031978;28;20190;-68
2021/03/09 11:16:34;;;;;;;0.87;0.60;;;;;;;;;;5034263;28;20206;-67
2021/03/09 11:18:59;;;;;;;0.80;0.60;;;;;;;;;;5031384;28;20231;-66
2021/03/09 11:21:25;;;;;;;1.70;0.63;;;;;;;;;;5028942;28;20178;-66
2021/03/09 11:23:51;;;;;;;1.90;1.30;;;;;;;;;;5031521;28;20558;-66
2021/03/09 11:26:23;;;;;;;2.13;1.67;;;;;;;;;;5038531;28;20201;-67
2021/03/09 11:28:49;;;;;;;1.63;1.53;;;;;;;;;;5034652;28;20186;-66
2021/03/09 11:31:15;;;;;;;2.77;1.50;;;;;;;;;;5029468;28;20251;-66
2021/03/09 11:33:40;;;;;;;1.87;1.67;;;;;;;;;;5026961;28;20198;-66
2021/03/09 11:36:05;;;;;;;2.30;1.73;;;;;;;;;;5042422;28;20306;-67
2021/03/09 11:38:31;;;;;;;2.47;1.60;;;;;;;;;;5035420;28;20751;-67
2021/03/09 11:40:56;;;;;;;2.50;1.97;;;;;;;;;;5052575;28;20578;-66
2021/03/09 11:43:22;;;;;;;3.10;2.10;;;;;;;;;;5025325;28;20393;-66
2021/03/09 11:45:47;;;;;;;2.80;2.00;;;;;;;;;;5026271;28;20704;-67
2021/03/09 11:48:12;;;;;;;2.40;2.20;;;;;;;;;;5026562;28;20528;-67
2021/03/09 11:50:37;;;;;;;2.73;2.00;;;;;;;;;;5024351;28;20204;-67
2021/03/09 11:53:03;;;;;;;1.93;1.50;;;;;;;;;;5028421;28;20239;-66
2021/03/09 11:55:28;;;;;;;1.37;1.10;;;;;;;;;;5026500;28;20190;-66
2021/03/09 11:57:53;;;;;;;2.37;1.03;;;;;;;;;;5028395;28;20210;-66
2021/03/09 12:00:19;;;;;;;1.00;0.90;;;;;;;;;;5034657;28;20194;-67
2021/03/09 12:02:44;;;;;;;0.93;0.53;;;;;;;;;;5040844;28;20186;-67
2021/03/09 12:05:10;;;;;;;0.80;0.67;;;;;;;;;;5038047;28;20182;-66
2021/03/09 12:07:35;;;;;;;0.93;0.87;;;;;;;;;;5041406;28;20256;-67
2021/03/09 12:10:00;;;;;;;1.60;1.10;;;;;;;;;;5039500;28;20210;-66
2021/03/09 12:12:25;;;;;;;1.17;0.93;;;;;;;;;;5037104;28;20197;-67
2021/03/09 12:14:50;;;;;;;1.23;1.00;;;;;;;;;;5025473;28;20181;-66
2021/03/09 12:17:15;;;;;;;1.27;1.17;;;;;;;;;;5026544;28;20205;-67
2021/03/09 12:19:41;;;;;;;1.57;1.47;;;;;;;;;;5032870;28;20201;-67
2021/03/09 12:22:06;;;;;;;2.13;1.93;;;;;;;;;;5032503;28;20182;-66
2021/03/09 12:24:31;;;;;;;2.53;2.33;;;;;;;;;;5025498;28;20816;-66
2021/03/09 12:26:56;;;;;;;3.87;2.37;;;;;;;;;;5029799;28;20190;-67
2021/03/09 12:29:21;;;;;;;2.07;1.87;;;;;;;;;;5026017;28;20244;-67
2021/03/09 12:31:47;;;;;;;1.90;1.80;;;;;;;;;;5027356;28;20214;-67
2021/03/09 12:34:12;;;;;;;1.67;1.43;;;;;;;;;;5029750;28;20273;-65
2021/03/09 12:36:37;;;;;;;1.83;1.33;;;;;;;;;;5024677;28;20323;-67
2021/03/09 12:39:03;;;;;;;2.67;1.33;;;;;;;;;;5025951;28;20208;-67
2021/03/09 12:41:28;;;;;;;3.50;2.10;;;;;;;;;;5027446;28;20170;-68
2021/03/09 12:43:53;;;;;;;1.37;1.17;;;;;;;;;;5031658;28;20261;-67
2021/03/09 12:46:18;;;;;;;3.83;1.47;;;;;;;;;;5026019;28;20554;-67
2021/03/09 12:48:44;;;;;;;3.87;1.40;;;;;;;;;;5026912;28;20259;-67
2021/03/09 12:51:09;;;;;;;1.87;1.50;;;;;;;;;;5027815;28;20178;-67
2021/03/09 12:53:34;;;;;;;2.10;1.67;;;;;;;;;;5025565;28;20643;-67
2021/03/09 12:55:59;;;;;;;1.70;1.60;;;;;;;;;;5024001;28;20202;-67
2021/03/09 12:58:24;;;;;;;3.17;1.50;;;;;;;;;;5029828;28;20909;-66
2021/03/09 13:00:50;;;;;;;2.83;1.80;;;;;;;;;;5024212;28;20224;-66
2021/03/09 13:03:17;;;;;;;3.33;2.10;;;;;;;;;;5024823;28;20525;-66
2021/03/09 13:05:42;;;;;;;2.17;1.53;;;;;;;;;;5025455;28;20173;-67
2021/03/09 13:08:08;;;;;;;3.63;1.60;;;;;;;;;;5026284;28;20209;-67
2021/03/09 13:10:33;;;;;;;2.23;1.67;;;;;;;;;;5031029;28;20209;-66
2021/03/09 13:12:58;;;;;;;3.13;1.70;;;;;;;;;;5047182;28;20203;-67
2021/03/09 13:15:23;;;;;;;4.37;1.73;;;;;;;;;;5047116;28;20174;-67
2021/03/09 13:17:48;;;;;;;1.10;1.00;;;;;;;;;;5048247;28;20550;-68
2021/03/09 13:20:15;;;;;;;2.63;1.40;;;;;;;;;;5027393;28;20193;-67
2021/03/09 13:22:41;;;;;;;1.67;1.30;;;;;;;;;;5024518;28;20174;-67
2021/03/09 13:25:07;;;;;;;1.30;1.10;;;;;;;;;;5023784;28;20193;-67
2021/03/09 13:27:32;;;;;;;2.67;1.17;;;;;;;;;;5025858;28;20186;-67
2021/03/09 13:29:58;;;;;;;2.13;1.13;;;;;;;;;;5019295;28;20674;-66
2021/03/09 13:32:23;;;;;;;2.10;1.43;;;;;;;;;;5027881;28;20198;-65
2021/03/09 13:34:48;;;;;;;3.23;1.50;;;;;;;;;;5023440;28;20174;-68
2021/03/09 13:37:13;;;;;;;2.97;1.20;;;;;;;;;;5021900;28;20205;-66
2021/03/09 13:39:39;;;;;;;2.00;1.57;;;;;;;;;;5023082;28;20226;-67
2021/03/09 13:42:05;;;;;;;3.20;1.77;;;;;;;;;;5026286;28;20189;-67
2021/03/09 13:44:30;;;;;;;4.60;1.53;;;;;;;;;;5024018;28;20224;-67
2021/03/09 13:46:55;;;;;;;2.70;1.97;;;;;;;;;;5025557;28;20190;-68
2021/03/09 13:49:21;;;;;;;2.03;1.83;;;;;;;;;;5026125;28;20218;-68
2021/03/09 13:51:46;;;;;;;2.80;1.80;;;;;;;;;;5024870;28;20583;-68
2021/03/09 13:54:11;;;;;;;3.53;2.10;;;;;;;;;;5023256;28;20192;-67
2021/03/09 13:56:37;;;;;;;2.40;2.10;;;;;;;;;;5021079;28;20213;-67
2021/03/09 13:59:02;;;;;;;4.10;2.77;;;;;;;;;;5023449;28;20193;-67
2021/03/09 14:01:27;;;;;;;4.00;2.20;;;;;;;;;;5025112;28;20182;-67
2021/03/09 14:03:52;;;;;;;3.57;1.97;;;;;;;;;;5024692;28;20284;-68
2021/03/09 14:06:18;;;;;;;7.70;2.50;;;;;;;;;;5026510;28;20872;-68
2021/03/09 14:08:43;;;;;;;4.13;2.80;;;;;;;;;;5029099;28;20197;-68
2021/03/09 14:11:08;;;;;;;5.20;2.20;;;;;;;;;;5030592;28;20165;-68
2021/03/09 14:13:33;;;;;;;2.57;2.37;;;;;;;;;;5025962;28;20193;-67
2021/03/09 14:15:58;;;;;;;3.70;2.30;;;;;;;;;;5026002;28;20201;-68
2021/03/09 14:18:24;;;;;;;4.60;2.50;;;;;;;;;;5024245;28;20181;-67
2021/03/09 14:20:49;;;;;;;5.60;3.17;;;;;;;;;;5023971;28;20200;-68
2021/03/09 14:23:14;;;;;;;4.73;2.93;;;;;;;;;;5027257;28;20228;-67
2021/03/09 14:25:39;;;;;;;3.63;2.47;;;;;;;;;;5023316;28;20173;-68
2021/03/09 14:28:04;;;;;;;5.17;3.27;;;;;;;;;;5022870;28;20186;-68
2021/03/09 14:30:30;;;;;;;3.83;2.67;;;;;;;;;;5023145;28;20864;-68
2021/03/09 14:32:55;;;;;;;6.83;3.03;;;;;;;;;;5028089;28;20205;-67